Latest Weather Observations for Camden

IDN60801

Issued at 6:05 pm EST Thursday 24 April 2014 (issued every 30 minutes, with the page automatically refreshed every 10 minutes)

About weather observations | Map of weather stations | Latest weather observations for NSW | Other Formats
Station Details ID: 068192 Name: CAMDEN AIRPORT AWS Lat: -34.04 Lon: 150.69 Height: 73.9 m
Data from the previous 72 hours. | See also: Recent months at Camden
Date/Time
EST
Temp
°C
App
Temp
°C
Dew
Point
Rel
Hum
%
Delta-T
°C
Wind Press
QNH
hPa
Press
MSL
hPa
Rain
since 9 am
mm
Dir
 
Spd
km/h
Gust
km/h
Spd
kts
Gust
kts
24/06:00pm 22.0 19.9 6.7 37 7.8 S 7 11 4 6 1013.8 1013.7 0.0
24/05:30pm 23.2 20.3 6.5 34 8.6 SSW 11 13 6 7 1013.1 - 0.0
24/05:00pm 24.5 21.6 6.7 32 9.3 SW 11 17 6 9 1012.5 - 0.0
24/04:30pm 26.8 22.8 6.8 28 10.6 WSW 17 22 9 12 1012.1 - 0.0
24/04:00pm 27.6 23.4 7.5 28 10.8 WSW 19 28 10 15 1011.9 - 0.0
24/03:30pm 28.1 23.9 7.4 27 11.1 SW 19 28 10 15 1011.6 - 0.0
24/03:00pm 28.9 26.0 9.6 30 10.8 SW 15 20 8 11 1011.4 1011.3 0.0
24/02:30pm 29.3 25.7 8.4 27 11.5 W 17 24 9 13 1011.3 - 0.0
24/02:00pm 28.7 25.5 8.4 28 11.1 WNW 15 24 8 13 1011.3 - 0.0
24/01:30pm 27.8 24.9 8.1 29 10.7 WNW 13 19 7 10 1011.5 - 0.0
24/01:00pm 26.4 25.3 10.5 37 8.9 N 7 9 4 5 1011.8 - 0.0
24/12:30pm 25.4 25.4 11.2 41 8.0 E 2 7 1 4 1012.2 - 0.0
24/12:00pm 24.2 24.3 11.5 45 7.2 ENE 2 7 1 4 1012.8 1012.7 0.0
24/11:30am 22.6 22.0 10.4 46 6.7 S 4 7 2 4 1013.3 - 0.0
24/11:00am 21.2 20.4 11.0 52 5.6 S 6 7 3 4 1013.7 - 0.0
24/10:30am 20.3 19.5 11.0 55 5.1 ESE 6 9 3 5 1013.9 - 0.0
24/10:00am 19.6 20.0 11.4 59 4.5 CALM 0 0 0 0 1013.8 - 0.0
24/09:30am 16.8 17.2 11.3 70 3.0 CALM 0 0 0 0 1014.0 - 0.0
24/09:00am 15.5 16.0 11.7 78 2.1 CALM 0 0 0 0 1014.3 1014.2 0.0
24/08:30am 14.7 14.5 11.7 82 1.6 N 4 7 2 4 1014.1 - 0.0
24/08:00am 13.2 13.3 11.6 90 0.9 SW 2 9 1 5 1013.9 - 0.0
24/07:30am 11.2 11.5 11.0 99 0.1 CALM 0 0 0 0 1013.8 - 0.0
24/07:01am 9.9 9.9 9.8 99 0.1 CALM 0 0 0 0 1013.5 - 0.0
24/07:00am 10.0 10.0 9.9 99 0.1 CALM 0 0 0 0 1013.5 - 0.0
24/06:30am 9.5 9.3 9.2 98 0.1 CALM 0 0 0 0 1013.4 - 0.0
24/06:24am 9.5 9.4 9.4 99 0.0 CALM 0 0 0 0 1013.4 - 0.0
24/06:20am 9.6 9.5 9.5 99 0.0 CALM 0 0 0 0 1013.4 - 0.0
24/06:00am 9.6 9.5 9.5 99 0.0 CALM 0 6 0 3 1013.3 1013.2 0.0
24/05:55am 9.7 9.3 9.6 99 0.1 N 2 6 1 3 1013.2 - 0.0
24/05:30am 10.2 10.3 10.0 99 0.1 CALM 0 0 0 0 1013.4 - 0.0
24/05:00am 9.9 8.8 9.8 99 0.1 SSW 6 9 3 5 1013.1 - 0.0
24/04:30am 9.9 9.8 9.6 98 0.2 CALM 0 0 0 0 1013.1 - 0.0
24/04:00am 10.3 10.4 10.1 99 0.1 CALM 0 0 0 0 1013.2 - 0.0
24/03:30am 10.2 10.3 10.0 99 0.1 CALM 0 0 0 0 1013.3 - 0.0
24/03:21am 10.4 10.5 10.2 99 0.1 CALM 0 0 0 0 1013.4 - 0.0
24/03:07am 10.1 10.1 9.8 98 0.2 CALM 0 0 0 0 1013.7 - 0.0
24/03:05am 10.0 10.0 9.7 98 0.2 CALM 0 0 0 0 1013.6 - 0.0
24/03:04am 10.0 10.0 9.7 98 0.2 CALM 0 0 0 0 1013.6 - 0.0
24/03:00am 9.7 9.6 9.4 98 0.1 CALM 0 0 0 0 1013.6 1013.5 0.0
24/02:30am 9.5 9.3 8.9 96 0.3 CALM 0 0 0 0 1013.8 - 0.0
24/02:09am 10.4 10.4 9.9 97 0.3 CALM 0 0 0 0 1013.9 - 0.0
24/02:00am 10.3 10.3 9.8 97 0.3 CALM 0 0 0 0 1014.0 - 0.0
24/01:44am 10.1 10.0 9.6 97 0.3 CALM 0 0 0 0 1014.3 - 0.0
24/01:43am 10.2 10.2 9.7 97 0.3 CALM 0 0 0 0 1014.3 - 0.0
24/01:30am 10.4 10.0 9.8 96 0.3 S 2 6 1 3 1014.5 - 0.0
24/01:00am 10.6 9.9 10.0 96 0.3 S 4 7 2 4 1014.5 - 0.0
24/12:30am 11.3 11.5 10.7 96 0.3 CALM 0 0 0 0 1014.6 - 0.0
24/12:27am 11.2 11.4 10.6 96 0.3 CALM 0 0 0 0 1014.6 - 0.0
24/12:09am 11.4 11.6 10.6 95 0.4 CALM 0 0 0 0 1014.8 - 0.0
24/12:00am 11.4 11.6 10.6 95 0.4 S 0 0 0 0 1014.9 1014.9 0.0
 
Date/Time
EST
Temp
°C
App
Temp
°C
Dew
Point
Rel
Hum
%
Delta-T
°C
Wind Press
QNH
hPa
Press
MSL
hPa
Rain
since 9 am
mm
Dir
 
Spd
km/h
Gust
km/h
Spd
kts
Gust
kts
23/11:57pm 11.5 11.7 10.7 95 0.4 CALM 0 6 0 3 1014.9 - 0.0
23/11:30pm 11.8 12.1 10.9 94 0.5 CALM 0 0 0 0 1015.0 - 0.0
23/11:00pm 12.0 12.3 10.9 93 0.6 CALM 0 0 0 0 1015.1 - 0.0
23/10:30pm 12.1 12.3 10.7 91 0.7 CALM 0 0 0 0 1015.4 - 0.0
23/10:00pm 12.9 13.3 11.3 90 0.8 CALM 0 0 0 0 1015.5 - 0.0
23/09:30pm 12.7 13.1 11.1 90 0.8 CALM 0 0 0 0 1015.6 - 0.0
23/09:00pm 13.6 13.9 10.8 83 1.5 CALM 0 0 0 0 1015.8 1015.8 0.0
23/08:30pm 14.1 14.4 10.9 81 1.7 CALM 0 0 0 0 1015.8 - 0.0
23/08:00pm 15.0 15.4 11.2 78 2.0 CALM 0 2 0 1 1015.9 - 0.0
23/07:30pm 15.7 16.2 11.5 76 2.3 CALM 0 0 0 0 1015.8 - 0.0
23/07:00pm 17.6 17.9 10.9 65 3.6 CALM 0 0 0 0 1015.7 - 0.0
23/06:30pm 17.5 17.9 11.1 66 3.5 CALM 0 0 0 0 1015.6 - 0.0
23/06:00pm 19.3 17.7 10.3 56 4.8 NE 9 9 5 5 1015.2 1015.2 0.0
23/05:30pm 20.4 19.3 10.5 53 5.4 ENE 7 11 4 6 1014.8 - 0.0
23/05:00pm 22.4 20.7 11.2 49 6.2 N 11 13 6 7 1014.6 - 0.0
23/04:30pm 23.8 21.1 10.5 43 7.4 N 15 17 8 9 1014.4 - 0.0
23/04:00pm 24.9 22.8 11.1 42 7.8 N 13 17 7 9 1014.4 - 0.0
23/03:30pm 25.4 23.0 8.8 35 9.0 NNE 11 13 6 7 1014.4 - 0.0
23/03:00pm 25.8 24.4 9.6 36 8.9 NE 7 13 4 7 1014.4 1014.3 0.0
23/02:30pm 25.8 24.5 10.0 37 8.8 NE 7 13 4 7 1014.6 - 0.0
23/02:00pm 25.3 24.2 10.0 38 8.5 NNE 6 11 3 6 1014.7 - 0.0
23/01:30pm 24.9 23.5 9.6 38 8.4 NNE 7 13 4 7 1014.9 - 0.0
23/01:00pm 25.2 25.0 10.3 39 8.3 NE 2 7 1 4 1015.3 - 0.0
23/12:30pm 24.4 24.8 11.4 44 7.3 CALM 0 9 0 5 1015.8 - 0.0
23/12:00pm 23.2 23.5 10.9 46 6.8 CALM 0 0 0 0 1016.2 1016.1 0.0
23/11:30am 22.7 22.2 9.5 43 7.1 NW 2 9 1 5 1016.6 - 0.0
23/11:00am 22.0 21.6 11.1 50 6.1 W 4 7 2 4 1017.2 - 0.0
23/10:30am 20.6 20.5 10.7 53 5.4 SSW 2 7 1 4 1017.4 - 0.0
23/10:00am 19.5 19.6 10.2 55 5.0 CALM 0 0 0 0 1017.6 - 0.0
23/09:30am 16.6 17.0 11.3 71 2.9 CALM 0 0 0 0 1017.8 - 0.0
23/09:00am 14.1 14.5 11.1 82 1.6 CALM 0 0 0 0 1018.1 1018.0 0.0
23/08:30am 12.0 12.1 10.1 88 1.0 CALM 0 0 0 0 1018.2 - 0.0
23/08:00am 10.4 10.5 10.1 98 0.2 CALM 0 0 0 0 1018.2 - 0.0
23/07:30am 9.2 9.0 9.1 99 0.0 CALM 0 0 0 0 1018.0 - 0.0
23/07:00am 8.0 7.5 7.9 99 0.0 CALM 0 0 0 0 1017.7 - 0.0
23/06:43am 6.5 5.6 6.2 98 0.1 CALM 0 0 0 0 1017.7 - 0.0
23/06:31am 7.1 6.4 7.0 99 0.0 CALM 0 0 0 0 1017.6 - 0.0
23/06:30am 7.1 6.4 7.0 99 0.0 CALM 0 0 0 0 1017.6 - 0.0
23/06:00am 7.0 6.3 6.9 99 0.0 CALM 0 0 0 0 1017.4 1017.3 0.0
23/05:42am 6.9 6.1 6.6 98 0.1 CALM 0 0 0 0 1017.3 - 0.0
23/05:30am 6.8 6.0 6.5 98 0.1 CALM 0 0 0 0 1017.2 - 0.0
23/05:23am 6.9 6.2 6.8 99 0.0 CALM 0 0 0 0 1017.2 - 0.0
23/05:08am 7.3 6.7 7.2 99 0.0 CALM 0 0 0 0 1017.2 - 0.0
23/05:00am 7.2 6.5 7.1 99 0.0 CALM 0 0 0 0 1017.2 - 0.0
23/04:50am 6.9 6.1 6.6 98 0.1 CALM 0 0 0 0 1017.3 - 0.0
23/04:31am 7.0 6.2 6.7 98 0.1 CALM 0 0 0 0 1017.1 - 0.0
23/04:30am 7.1 6.4 6.8 98 0.1 CALM 0 0 0 0 1017.0 - 0.0
23/04:17am 7.3 6.6 7.0 98 0.1 CALM 0 0 0 0 1017.0 - 0.0
23/04:11am 7.3 6.6 7.0 98 0.1 CALM 0 0 0 0 1016.9 - 0.0
23/04:08am 7.2 6.5 6.9 98 0.1 CALM 0 0 0 0 1017.0 - 0.0
23/04:07am 7.0 6.2 6.7 98 0.1 CALM 0 0 0 0 1017.0 - 0.0
23/04:04am 6.8 6.0 6.5 98 0.1 CALM 0 0 0 0 1017.0 - 0.0
23/04:00am 7.0 6.2 6.7 98 0.1 CALM 0 0 0 0 1017.1 - 0.0
23/03:57am 7.0 6.2 6.7 98 0.1 CALM 0 0 0 0 1017.1 - 0.0
23/03:30am 7.9 7.3 7.6 98 0.1 CALM 0 0 0 0 1017.0 - 0.0
23/03:20am 7.5 6.9 7.2 98 0.1 CALM 0 0 0 0 1017.0 - 0.0
23/03:13am 7.9 7.3 7.6 98 0.1 CALM 0 0 0 0 1016.9 - 0.0
23/03:00am 7.7 7.1 7.3 97 0.2 CALM 0 0 0 0 1017.0 1016.9 0.0
23/02:50am 7.4 6.7 7.0 97 0.2 CALM 0 0 0 0 1016.9 - 0.0
23/02:33am 8.0 7.5 7.7 98 0.1 CALM 0 0 0 0 1017.1 - 0.0
23/02:30am 8.1 7.6 7.8 98 0.1 CALM 0 0 0 0 1017.1 - 0.0
23/02:17am 8.0 7.4 7.6 97 0.2 CALM 0 0 0 0 1017.1 - 0.0
23/02:16am 8.0 7.4 7.6 97 0.2 CALM 0 0 0 0 1017.1 - 0.0
23/02:14am 8.0 7.4 7.6 97 0.2 CALM 0 0 0 0 1017.1 - 0.0
23/02:05am 8.0 7.4 7.6 97 0.2 CALM 0 0 0 0 1017.1 - 0.0
23/02:00am 8.2 7.7 7.8 97 0.2 CALM 0 0 0 0 1017.1 - 0.0
23/01:34am 8.6 8.1 8.0 96 0.3 CALM 0 0 0 0 1017.2 - 0.0
23/01:32am 8.5 8.0 7.9 96 0.3 CALM 0 0 0 0 1017.2 - 0.0
23/01:31am 8.6 8.1 8.0 96 0.3 CALM 0 0 0 0 1017.2 - 0.0
23/01:30am 8.7 8.3 8.1 96 0.3 CALM 0 0 0 0 1017.2 - 0.0
23/01:00am 9.3 9.0 8.8 97 0.2 CALM 0 0 0 0 1017.2 - 0.0
23/12:55am 9.6 9.4 9.1 97 0.2 CALM 0 0 0 0 1017.2 - 0.0
23/12:49am 9.6 9.4 9.1 97 0.2 CALM 0 0 0 0 1017.1 - 0.0
23/12:43am 9.4 9.1 8.8 96 0.3 CALM 0 0 0 0 1017.1 - 0.0
23/12:30am 9.4 9.1 8.6 95 0.4 CALM 0 0 0 0 1017.0 - 0.0
23/12:03am 9.8 9.6 9.2 96 0.3 CALM 0 0 0 0 1017.0 - 0.0
23/12:00am 10.2 10.1 9.6 96 0.3 CALM 0 0 0 0 1017.0 1016.9 0.0
 
Date/Time
EST
Temp
°C
App
Temp
°C
Dew
Point
Rel
Hum
%
Delta-T
°C
Wind Press
QNH
hPa
Press
MSL
hPa
Rain
since 9 am
mm
Dir
 
Spd
km/h
Gust
km/h
Spd
kts
Gust
kts
22/11:59pm 10.2 10.1 9.6 96 0.3 CALM 0 0 0 0 1017.0 - 0.0
22/11:58pm 10.3 10.3 9.8 97 0.3 CALM 0 0 0 0 1017.0 - 0.0
22/11:50pm 10.8 10.9 10.2 96 0.3 CALM 0 0 0 0 1017.0 - 0.0
22/11:38pm 10.2 10.1 9.4 95 0.4 CALM 0 0 0 0 1016.9 - 0.0
22/11:30pm 10.5 10.5 9.9 96 0.3 CALM 0 0 0 0 1016.9 - 0.0
22/11:19pm 10.3 10.2 9.5 95 0.4 CALM 0 0 0 0 1016.9 - 0.0
22/11:00pm 10.7 10.7 9.9 95 0.4 CALM 0 0 0 0 1016.9 - 0.0
22/10:59pm 10.9 11.0 10.3 96 0.3 CALM 0 0 0 0 1017.0 - 0.0
22/10:46pm 11.1 10.1 10.2 94 0.5 S 6 9 3 5 1017.2 - 0.0
22/10:30pm 10.8 10.8 9.7 93 0.6 CALM 0 0 0 0 1017.1 - 0.0
22/10:00pm 12.1 12.4 11.0 93 0.6 CALM 0 0 0 0 1017.1 - 0.0
22/09:30pm 12.4 12.6 10.6 89 0.9 CALM 0 0 0 0 1017.1 - 0.0
22/09:00pm 13.0 13.4 11.4 90 0.8 CALM 0 0 0 0 1017.0 1016.9 0.0
22/08:30pm 13.8 14.2 11.3 85 1.3 CALM 0 0 0 0 1016.9 - 0.0
22/08:00pm 14.8 15.5 12.3 85 1.4 CALM 0 0 0 0 1016.7 - 0.0
22/07:30pm 15.8 15.8 12.4 80 1.9 SW 4 6 2 3 1016.7 - 0.0
22/07:00pm 15.7 15.2 12.1 79 2.0 SW 6 7 3 4 1016.4 - 0.0
22/06:30pm 17.1 17.8 12.2 73 2.7 CALM 0 0 0 0 1016.0 - 0.0
22/06:00pm 18.4 18.5 12.6 69 3.2 N 4 6 2 3 1015.6 1015.6 0.0
22/05:30pm 19.0 18.1 11.3 61 4.2 N 7 7 4 4 1015.4 - 0.0
22/05:00pm 21.2 20.5 12.1 56 5.1 N 7 9 4 5 1015.3 - 0.0
22/04:30pm 21.9 21.3 12.2 54 5.5 N 7 11 4 6 1015.1 - 0.0
22/04:00pm 22.8 21.3 11.8 50 6.2 N 11 15 6 8 1015.0 - 0.0
22/03:30pm 24.3 23.5 11.6 45 7.2 N 7 13 4 7 1014.8 - 0.0
22/03:00pm 24.5 23.0 10.4 41 7.8 N 9 13 5 7 1014.9 1014.9 0.0
22/02:30pm 25.0 23.9 10.8 41 8.0 NNE 7 11 4 6 1014.8 - 0.0
22/02:00pm 24.5 23.3 9.6 39 8.2 N 6 9 3 5 1014.9 - 0.0
22/01:30pm 23.7 22.5 9.7 41 7.6 N 6 9 3 5 1015.1 - 0.0
22/01:00pm 23.5 22.3 10.2 43 7.3 N 7 9 4 5 1015.5 - 0.0
22/12:30pm 22.6 21.5 10.1 45 6.8 WSW 6 9 3 5 1015.9 - 0.0
22/12:00pm 21.5 20.5 10.3 49 6.1 SSW 6 9 3 5 1016.5 1016.4 0.0
22/11:30am 20.8 20.0 10.9 53 5.4 SSW 6 9 3 5 1017.1 - 0.0
22/11:00am 19.8 18.9 10.5 55 5.0 SSW 6 11 3 6 1017.6 - 0.0
22/10:30am 18.7 17.6 10.8 60 4.3 SW 7 9 4 5 1018.0 - 0.0
22/10:00am 17.4 17.2 11.7 69 3.1 SSW 4 7 2 4 1018.3 - 0.0
22/09:30am 14.6 13.6 11.0 79 1.9 SSE 7 11 4 6 1018.8 - 0.0
22/09:00am 12.6 13.0 11.3 92 0.7 CALM 0 0 0 0 1019.1 1019.0 0.0
22/08:30am 10.7 10.9 10.5 99 0.1 CALM 0 0 0 0 1019.1 - 0.0
22/08:00am 9.3 9.1 9.2 99 0.0 CALM 0 0 0 0 1019.1 - 0.0
22/07:34am 8.2 7.8 8.1 99 0.0 CALM 0 0 0 0 1019.1 - 0.0
22/07:30am 8.1 7.6 8.0 99 0.0 CALM 0 0 0 0 1019.1 - 0.0
22/07:03am 7.1 6.4 7.0 99 0.0 CALM 0 6 0 3 1019.0 - 0.0
22/07:00am 6.9 6.2 6.8 99 0.0 CALM 0 0 0 0 1019.1 - 0.0
22/06:52am 6.8 6.0 6.7 99 0.0 CALM 0 0 0 0 1019.1 - 0.0
22/06:39am 6.6 5.4 6.5 99 0.0 SE 2 7 1 4 1019.0 - 0.0
22/06:30am 6.5 4.3 6.4 99 0.0 SSE 7 9 4 5 1018.8 - 0.0
22/06:29am 6.5 4.3 6.4 99 0.0 SSE 7 9 4 5 1018.8 - 0.0
22/06:00am 6.5 4.9 6.2 98 0.1 SW 4 6 2 3 1019.2 1019.1 0.0
22/05:59am 6.4 4.4 6.1 98 0.1 WSW 6 6 3 3 1019.2 - 0.0
22/05:30am 6.5 5.6 6.2 98 0.1 CALM 0 0 0 0 1019.1 - 0.0
22/05:02am 6.4 5.5 6.1 98 0.1 CALM 0 0 0 0 1019.2 - 0.0
22/05:00am 6.5 5.6 6.2 98 0.1 CALM 0 0 0 0 1019.1 - 0.0
22/04:30am 7.2 6.5 6.9 98 0.1 CALM 0 0 0 0 1019.0 - 0.0
22/04:25am 7.0 6.2 6.7 98 0.1 CALM 0 0 0 0 1019.0 - 0.0
22/04:08am 6.8 6.0 6.4 97 0.2 CALM 0 0 0 0 1019.0 - 0.0
22/04:00am 6.9 6.1 6.5 97 0.2 CALM 0 0 0 0 1019.0 - 0.0
22/03:30am 7.7 7.1 7.3 97 0.2 CALM 0 0 0 0 1018.9 - 0.0
22/03:00am 7.6 6.9 7.0 96 0.3 CALM 0 0 0 0 1019.0 1018.9 0.0
22/02:58am 7.6 7.0 7.2 97 0.2 CALM 0 0 0 0 1019.1 - 0.0
22/02:46am 8.1 7.5 7.5 96 0.3 CALM 0 0 0 0 1019.2 - 0.0
22/02:30am 8.2 7.6 7.6 96 0.3 CALM 0 0 0 0 1019.3 - 0.0
22/02:29am 8.2 7.6 7.6 96 0.3 CALM 0 0 0 0 1019.3 - 0.0
22/02:10am 8.6 8.1 8.0 96 0.3 CALM 0 0 0 0 1019.5 - 0.0
22/02:07am 8.6 8.1 8.0 96 0.3 CALM 0 0 0 0 1019.5 - 0.0
22/02:00am 8.7 8.3 8.1 96 0.3 CALM 0 0 0 0 1019.5 - 0.0
22/01:34am 8.9 8.5 8.3 96 0.3 CALM 0 0 0 0 1019.7 - 0.0
22/01:30am 9.2 8.9 8.6 96 0.3 CALM 0 0 0 0 1019.7 - 0.0
22/01:21am 9.1 8.7 8.3 95 0.4 CALM 0 0 0 0 1019.8 - 0.0
22/01:00am 9.5 9.3 8.9 96 0.3 CALM 0 0 0 0 1020.0 - 0.0
22/12:30am 9.6 9.3 8.8 95 0.4 CALM 0 0 0 0 1020.2 - 0.0
22/12:28am 9.6 9.3 8.8 95 0.4 CALM 0 0 0 0 1020.2 - 0.0
22/12:00am 9.6 9.3 8.7 94 0.4 CALM 0 0 0 0 1020.2 1020.1 0.0
 
Date/Time
EST
Temp
°C
App
Temp
°C
Dew
Point
Rel
Hum
%
Delta-T
°C
Wind Press
QNH
hPa
Press
MSL
hPa
Rain
since 9 am
mm
Dir
 
Spd
km/h
Gust
km/h
Spd
kts
Gust
kts
21/11:53pm 9.7 9.4 8.8 94 0.4 CALM 0 0 0 0 1020.3 - 0.0
21/11:30pm 10.2 10.1 9.3 94 0.4 CALM 0 0 0 0 1020.3 - 0.0
21/11:00pm 10.3 10.1 9.2 93 0.5 CALM 0 0 0 0 1020.5 - 0.0
21/10:42pm 10.4 10.3 9.3 93 0.5 CALM 0 0 0 0 1020.5 - 0.0
21/10:30pm 10.7 10.6 9.6 93 0.6 CALM 0 0 0 0 1020.5 - 0.0
21/10:28pm 10.7 10.6 9.6 93 0.6 CALM 0 0 0 0 1020.6 - 0.0
21/10:18pm 11.1 11.1 9.9 92 0.6 CALM 0 0 0 0 1020.6 - 0.0
21/10:15pm 11.1 11.1 9.9 92 0.6 CALM 0 0 0 0 1020.6 - 0.0
21/10:00pm 11.2 11.2 9.8 91 0.7 CALM 0 0 0 0 1020.6 - 0.0
21/09:30pm 11.3 11.1 9.2 87 1.1 CALM 0 0 0 0 1020.7 - 0.0
21/09:00pm 12.1 12.2 10.2 88 1.0 CALM 0 0 0 0 1020.7 1020.6 0.0
21/08:30pm 12.4 12.5 10.1 86 1.2 CALM 0 0 0 0 1020.6 - 0.0
21/08:00pm 13.0 13.1 10.2 83 1.5 CALM 0 0 0 0 1020.5 - 0.0
21/07:30pm 13.8 13.8 9.8 77 2.1 CALM 0 0 0 0 1020.2 - 0.0
21/07:00pm 14.5 13.4 10.1 75 2.3 SW 6 7 3 4 1020.1 - 0.0
21/06:30pm 15.9 14.6 9.1 64 3.5 E 6 7 3 4 1019.7 - 0.0

Other Formats:

Comma delimited format used in spreadsheet applications
http://www.bom.gov.au/fwo/IDN60801/IDN60801.94755.axf

JavaScript Object Notation format (JSON) in row-major order
http://www.bom.gov.au/fwo/IDN60801/IDN60801.94755.json